sensor_id;sensor_type;location;lat;lon;timestamp;pressure;altitude;pressure_sealevel;temperature;humidity
2000;BME280;1001;48.87406500;9.59633600;2022-08-21T00:02:26;95268.06;;;15.60;100.00
2000;BME280;1001;48.87406500;9.59633600;2022-08-21T00:04:54;95272.81;;;15.58;100.00
2000;BME280;1001;48.87406500;9.59633600;2022-08-21T00:07:20;95274.09;;;15.55;100.00
2000;BME280;1001;48.87406500;9.59633600;2022-08-21T00:09:48;95260.38;;;15.53;100.00
2000;BME280;1001;48.87406500;9.59633600;2022-08-21T00:12:15;95265.09;;;15.46;100.00
2000;BME280;1001;48.87406500;9.59633600;2022-08-21T00:14:42;95257.59;;;15.33;100.00
2000;BME280;1001;48.87406500;9.59633600;2022-08-21T00:17:08;95255.19;;;15.27;100.00
2000;BME280;1001;48.87406500;9.59633600;2022-08-21T00:19:35;95254.66;;;15.25;100.00
2000;BME280;1001;48.87406500;9.59633600;2022-08-21T00:22:02;95268.44;;;15.37;99.63
2000;BME280;1001;48.87406500;9.59633600;2022-08-21T00:24:29;95263.00;;;15.48;97.94
2000;BME280;1001;48.87406500;9.59633600;2022-08-21T00:26:57;95265.88;;;15.47;97.45
2000;BME280;1001;48.87406500;9.59633600;2022-08-21T00:29:24;95259.81;;;15.46;96.84
2000;BME280;1001;48.87406500;9.59633600;2022-08-21T00:31:50;95252.97;;;15.50;96.47
2000;BME280;1001;48.87406500;9.59633600;2022-08-21T00:34:17;95249.88;;;15.58;95.67
2000;BME280;1001;48.87406500;9.59633600;2022-08-21T00:36:44;95238.56;;;15.63;95.59
2000;BME280;1001;48.87406500;9.59633600;2022-08-21T00:39:10;95245.69;;;15.68;94.67
2000;BME280;1001;48.87406500;9.59633600;2022-08-21T00:41:38;95238.03;;;15.61;94.79
2000;BME280;1001;48.87406500;9.59633600;2022-08-21T00:44:09;95244.81;;;15.47;95.71
2000;BME280;1001;48.87406500;9.59633600;2022-08-21T00:46:37;95236.00;;;15.36;95.79
2000;BME280;1001;48.87406500;9.59633600;2022-08-21T00:49:05;95242.63;;;15.39;95.69
2000;BME280;1001;48.87406500;9.59633600;2022-08-21T00:51:36;95237.03;;;15.30;95.99
2000;BME280;1001;48.87406500;9.59633600;2022-08-21T00:54:04;95241.25;;;15.31;95.29
2000;BME280;1001;48.87406500;9.59633600;2022-08-21T00:56:32;95244.13;;;15.30;93.93
2000;BME280;1001;48.87406500;9.59633600;2022-08-21T00:58:59;95242.81;;;15.27;94.26
2000;BME280;1001;48.87406500;9.59633600;2022-08-21T01:01:28;95240.09;;;15.17;94.22
2000;BME280;1001;48.87406500;9.59633600;2022-08-21T01:03:55;95238.25;;;15.18;93.92
2000;BME280;1001;48.87406500;9.59633600;2022-08-21T01:06:21;95232.50;;;15.21;93.49
2000;BME280;1001;48.87406500;9.59633600;2022-08-21T01:08:48;95240.16;;;15.27;93.36
2000;BME280;1001;48.87406500;9.59633600;2022-08-21T01:11:15;95233.34;;;15.31;92.18
2000;BME280;1001;48.87406500;9.59633600;2022-08-21T01:13:43;95239.13;;;15.28;91.98
2000;BME280;1001;48.87406500;9.59633600;2022-08-21T01:16:13;95239.13;;;15.28;92.15
2000;BME280;1001;48.87406500;9.59633600;2022-08-21T01:18:43;95237.84;;;15.31;93.09
2000;BME280;1001;48.87406500;9.59633600;2022-08-21T01:21:14;95239.00;;;15.45;92.90
2000;BME280;1001;48.87406500;9.59633600;2022-08-21T01:23:45;95237.97;;;15.51;93.67
2000;BME280;1001;48.87406500;9.59633600;2022-08-21T01:26:14;95236.84;;;15.42;94.27
2000;BME280;1001;48.87406500;9.59633600;2022-08-21T01:28:44;95239.72;;;15.35;94.85
2000;BME280;1001;48.87406500;9.59633600;2022-08-21T01:31:13;95236.78;;;15.32;95.44
2000;BME280;1001;48.87406500;9.59633600;2022-08-21T01:33:41;95233.34;;;15.31;95.26
2000;BME280;1001;48.87406500;9.59633600;2022-08-21T01:36:08;95236.03;;;15.41;94.81
2000;BME280;1001;48.87406500;9.59633600;2022-08-21T01:38:36;95229.13;;;15.30;95.57
2000;BME280;1001;48.87406500;9.59633600;2022-08-21T01:41:02;95228.56;;;15.23;95.92
2000;BME280;1001;48.87406500;9.59633600;2022-08-21T01:43:29;95239.63;;;15.25;95.42
2000;BME280;1001;48.87406500;9.59633600;2022-08-21T01:45:56;95229.66;;;15.32;94.55
2000;BME280;1001;48.87406500;9.59633600;2022-08-21T01:48:22;95226.78;;;15.34;93.56
2000;BME280;1001;48.87406500;9.59633600;2022-08-21T01:50:49;95228.38;;;15.35;93.08
2000;BME280;1001;48.87406500;9.59633600;2022-08-21T01:53:16;95229.44;;;15.39;92.26
2000;BME280;1001;48.87406500;9.59633600;2022-08-21T01:55:44;95229.63;;;15.27;92.35
2000;BME280;1001;48.87406500;9.59633600;2022-08-21T01:58:11;95229.06;;;15.20;92.99
2000;BME280;1001;48.87406500;9.59633600;2022-08-21T02:00:38;95221.63;;;15.12;93.53
2000;BME280;1001;48.87406500;9.59633600;2022-08-21T02:03:05;95223.91;;;14.98;94.34
2000;BME280;1001;48.87406500;9.59633600;2022-08-21T02:05:32;95213.84;;;14.90;94.36
2000;BME280;1001;48.87406500;9.59633600;2022-08-21T02:07:58;95218.81;;;14.87;94.43
2000;BME280;1001;48.87406500;9.59633600;2022-08-21T02:10:27;95218.63;;;14.98;93.76
2000;BME280;1001;48.87406500;9.59633600;2022-08-21T02:12:56;95211.84;;;15.08;92.95
2000;BME280;1001;48.87406500;9.59633600;2022-08-21T02:15:24;95214.47;;;15.08;93.13
2000;BME280;1001;48.87406500;9.59633600;2022-08-21T02:17:53;95218.41;;;15.05;93.47
2000;BME280;1001;48.87406500;9.59633600;2022-08-21T02:20:23;95207.41;;;15.13;93.53
2000;BME280;1001;48.87406500;9.59633600;2022-08-21T02:22:50;95215.06;;;15.15;93.94
2000;BME280;1001;48.87406500;9.59633600;2022-08-21T02:25:18;95208.44;;;15.12;94.43
2000;BME280;1001;48.87406500;9.59633600;2022-08-21T02:27:46;95216.34;;;15.07;94.90
2000;BME280;1001;48.87406500;9.59633600;2022-08-21T02:30:17;95214.44;;;14.97;95.60
2000;BME280;1001;48.87406500;9.59633600;2022-08-21T02:32:44;95209.88;;;14.88;96.41
2000;BME280;1001;48.87406500;9.59633600;2022-08-21T02:35:11;95213.84;;;14.90;95.93
2000;BME280;1001;48.87406500;9.59633600;2022-08-21T02:37:47;95208.09;;;14.98;94.85
2000;BME280;1001;48.87406500;9.59633600;2022-08-21T02:40:16;95210.47;;;14.95;94.66
2000;BME280;1001;48.87406500;9.59633600;2022-08-21T02:42:43;95205.38;;;14.88;94.82
2000;BME280;1001;48.87406500;9.59633600;2022-08-21T02:45:11;95208.88;;;14.94;94.52
2000;BME280;1001;48.87406500;9.59633600;2022-08-21T02:47:40;95210.91;;;14.87;94.90
2000;BME280;1001;48.87406500;9.59633600;2022-08-21T02:50:13;95207.19;;;14.78;95.66
2000;BME280;1001;48.87406500;9.59633600;2022-08-21T02:52:39;95199.28;;;14.78;95.23
2000;BME280;1001;48.87406500;9.59633600;2022-08-21T02:55:06;95198.75;;;14.76;95.28
2000;BME280;1001;48.87406500;9.59633600;2022-08-21T02:57:33;95197.41;;;14.73;95.29
2000;BME280;1001;48.87406500;9.59633600;2022-08-21T02:59:59;95191.91;;;14.80;95.39
2000;BME280;1001;48.87406500;9.59633600;2022-08-21T03:02:26;95196.09;;;14.76;95.38
2000;BME280;1001;48.87406500;9.59633600;2022-08-21T03:04:54;95198.03;;;14.85;94.75
2000;BME280;1001;48.87406500;9.59633600;2022-08-21T03:07:21;95189.03;;;14.81;94.60
2000;BME280;1001;48.87406500;9.59633600;2022-08-21T03:09:47;95188.03;;;14.87;94.16
2000;BME280;1001;48.87406500;9.59633600;2022-08-21T03:12:14;95194.59;;;14.85;93.78
2000;BME280;1001;48.87406500;9.59633600;2022-08-21T03:14:41;95190.56;;;14.77;94.48
2000;BME280;1001;48.87406500;9.59633600;2022-08-21T03:17:07;95195.56;;;14.74;94.77
2000;BME280;1001;48.87406500;9.59633600;2022-08-21T03:19:34;95187.63;;;14.69;95.36
2000;BME280;1001;48.87406500;9.59633600;2022-08-21T03:22:02;95191.25;;;14.63;96.67
2000;BME280;1001;48.87406500;9.59633600;2022-08-21T03:24:30;95188.34;;;14.59;97.47
2000;BME280;1001;48.87406500;9.59633600;2022-08-21T03:26:57;95192.06;;;14.63;98.07
2000;BME280;1001;48.87406500;9.59633600;2022-08-21T03:29:25;95187.50;;;14.54;98.40
2000;BME280;1001;48.87406500;9.59633600;2022-08-21T03:31:51;95196.44;;;14.53;98.35
2000;BME280;1001;48.87406500;9.59633600;2022-08-21T03:34:18;95196.16;;;14.49;98.49
2000;BME280;1001;48.87406500;9.59633600;2022-08-21T03:36:45;95191.84;;;14.38;99.11
2000;BME280;1001;48.87406500;9.59633600;2022-08-21T03:39:13;95196.34;;;14.43;98.60
2000;BME280;1001;48.87406500;9.59633600;2022-08-21T03:41:40;95200.06;;;14.47;97.24
2000;BME280;1001;48.87406500;9.59633600;2022-08-21T03:44:07;95206.28;;;14.36;97.62
2000;BME280;1001;48.87406500;9.59633600;2022-08-21T03:46:33;95204.94;;;14.33;97.52
2000;BME280;1001;48.87406500;9.59633600;2022-08-21T03:49:00;95197.41;;;14.20;97.70
2000;BME280;1001;48.87406500;9.59633600;2022-08-21T03:51:27;95194.69;;;14.10;98.36
2000;BME280;1001;48.87406500;9.59633600;2022-08-21T03:53:53;95203.47;;;14.20;97.43
2000;BME280;1001;48.87406500;9.59633600;2022-08-21T03:56:22;95203.72;;;14.19;97.55
2000;BME280;1001;48.87406500;9.59633600;2022-08-21T03:58:49;95195.03;;;14.18;97.21
2000;BME280;1001;48.87406500;9.59633600;2022-08-21T04:01:15;95206.91;;;14.21;97.29
2000;BME280;1001;48.87406500;9.59633600;2022-08-21T04:03:42;95206.59;;;14.17;96.86
2000;BME280;1001;48.87406500;9.59633600;2022-08-21T04:06:09;95206.59;;;14.17;96.92
2000;BME280;1001;48.87406500;9.59633600;2022-08-21T04:08:35;95207.88;;;14.15;96.99
2000;BME280;1001;48.87406500;9.59633600;2022-08-21T04:11:02;95208.25;;;14.23;97.04
2000;BME280;1001;48.87406500;9.59633600;2022-08-21T04:13:31;95203.59;;;14.30;96.72
2000;BME280;1001;48.87406500;9.59633600;2022-08-21T04:15:57;95208.25;;;14.23;95.58
2000;BME280;1001;48.87406500;9.59633600;2022-08-21T04:18:24;95214.47;;;14.17;96.13
2000;BME280;1001;48.87406500;9.59633600;2022-08-21T04:20:52;95218.16;;;14.16;96.26
2000;BME280;1001;48.87406500;9.59633600;2022-08-21T04:23:22;95225.69;;;14.08;96.32
2000;BME280;1001;48.87406500;9.59633600;2022-08-21T04:25:49;95224.41;;;14.10;96.37
2000;BME280;1001;48.87406500;9.59633600;2022-08-21T04:28:16;95226.53;;;14.13;96.06
2000;BME280;1001;48.87406500;9.59633600;2022-08-21T04:30:44;95221.22;;;14.08;96.28
2000;BME280;1001;48.87406500;9.59633600;2022-08-21T04:33:11;95228.88;;;14.10;96.59
2000;BME280;1001;48.87406500;9.59633600;2022-08-21T04:35:38;95232.53;;;14.09;96.99
2000;BME280;1001;48.87406500;9.59633600;2022-08-21T04:38:05;95238.84;;;14.08;97.51
2000;BME280;1001;48.87406500;9.59633600;2022-08-21T04:40:32;95241.19;;;14.04;97.97
2000;BME280;1001;48.87406500;9.59633600;2022-08-21T04:43:04;95242.47;;;14.02;98.24
2000;BME280;1001;48.87406500;9.59633600;2022-08-21T04:45:33;95245.69;;;14.09;97.90
2000;BME280;1001;48.87406500;9.59633600;2022-08-21T04:48:04;95247.31;;;14.15;97.45
2000;BME280;1001;48.87406500;9.59633600;2022-08-21T04:50:47;95249.47;;;14.18;96.92
2000;BME280;1001;48.87406500;9.59633600;2022-08-21T04:53:20;95245.91;;;14.29;96.08
2000;BME280;1001;48.87406500;9.59633600;2022-08-21T04:55:48;95247.63;;;14.40;95.65
2000;BME280;1001;48.87406500;9.59633600;2022-08-21T04:58:17;95253.50;;;14.47;94.88
2000;BME280;1001;48.87406500;9.59633600;2022-08-21T05:00:45;95251.19;;;14.56;94.07
2000;BME280;1001;48.87406500;9.59633600;2022-08-21T05:03:14;95255.16;;;14.58;93.77
2000;BME280;1001;48.87406500;9.59633600;2022-08-21T05:05:43;95255.81;;;14.70;93.44
2000;BME280;1001;48.87406500;9.59633600;2022-08-21T05:08:13;95254.50;;;14.73;93.54
2000;BME280;1001;48.87406500;9.59633600;2022-08-21T05:10:42;95253.75;;;14.77;93.43
2000;BME280;1001;48.87406500;9.59633600;2022-08-21T05:13:10;95262.03;;;14.91;92.74
2000;BME280;1001;48.87406500;9.59633600;2022-08-21T05:15:38;95267.88;;;14.98;92.58
2000;BME280;1001;48.87406500;9.59633600;2022-08-21T05:18:04;95264.25;;;15.04;92.32
2000;BME280;1001;48.87406500;9.59633600;2022-08-21T05:20:33;95263.75;;;15.07;92.79
2000;BME280;1001;48.87406500;9.59633600;2022-08-21T05:23:00;95256.88;;;15.06;93.51
2000;BME280;1001;48.87406500;9.59633600;2022-08-21T05:25:27;95265.81;;;15.05;94.03
2000;BME280;1001;48.87406500;9.59633600;2022-08-21T05:27:54;95263.75;;;15.12;93.49
2000;BME280;1001;48.87406500;9.59633600;2022-08-21T05:30:21;95253.50;;;15.11;93.28
2000;BME280;1001;48.87406500;9.59633600;2022-08-21T05:32:47;95268.56;;;15.20;93.91
2000;BME280;1001;48.87406500;9.59633600;2022-08-21T05:35:14;95263.84;;;15.22;93.67
2000;BME280;1001;48.87406500;9.59633600;2022-08-21T05:37:42;95258.06;;;15.25;93.84
2000;BME280;1001;48.87406500;9.59633600;2022-08-21T05:40:10;95263.66;;;15.34;93.08
2000;BME280;1001;48.87406500;9.59633600;2022-08-21T05:42:36;95265.28;;;15.40;93.51
2000;BME280;1001;48.87406500;9.59633600;2022-08-21T05:45:04;95275.38;;;15.48;93.23
2000;BME280;1001;48.87406500;9.59633600;2022-08-21T05:47:31;95277.25;;;15.47;93.18
2000;BME280;1001;48.87406500;9.59633600;2022-08-21T05:49:57;95271.19;;;15.52;93.14
2000;BME280;1001;48.87406500;9.59633600;2022-08-21T05:52:24;95274.09;;;15.55;92.97
2000;BME280;1001;48.87406500;9.59633600;2022-08-21T05:54:52;95274.94;;;15.61;92.13
2000;BME280;1001;48.87406500;9.59633600;2022-08-21T05:57:20;95273.34;;;15.60;92.61
2000;BME280;1001;48.87406500;9.59633600;2022-08-21T05:59:47;95263.84;;;15.64;91.79
2000;BME280;1001;48.87406500;9.59633600;2022-08-21T06:02:14;95272.06;;;15.68;91.89
2000;BME280;1001;48.87406500;9.59633600;2022-08-21T06:04:42;95273.13;;;15.72;92.03
2000;BME280;1001;48.87406500;9.59633600;2022-08-21T06:07:09;95272.91;;;15.83;91.32
2000;BME280;1001;48.87406500;9.59633600;2022-08-21T06:09:36;95274.59;;;15.99;91.73
2000;BME280;1001;48.87406500;9.59633600;2022-08-21T06:12:06;95277.00;;;16.11;90.51
2000;BME280;1001;48.87406500;9.59633600;2022-08-21T06:14:34;95279.94;;;16.19;90.31
2000;BME280;1001;48.87406500;9.59633600;2022-08-21T06:17:03;95277.34;;;16.29;89.34
2000;BME280;1001;48.87406500;9.59633600;2022-08-21T06:19:31;95275.78;;;16.44;88.76
2000;BME280;1001;48.87406500;9.59633600;2022-08-21T06:21:58;95273.75;;;16.56;88.07
2000;BME280;1001;48.87406500;9.59633600;2022-08-21T06:24:25;95282.75;;;16.85;89.41
2000;BME280;1001;48.87406500;9.59633600;2022-08-21T06:26:52;95281.97;;;17.25;88.31
2000;BME280;1001;48.87406500;9.59633600;2022-08-21T06:29:21;95274.53;;;17.72;84.14
2000;BME280;1001;48.87406500;9.59633600;2022-08-21T06:31:48;95285.50;;;18.14;82.13
2000;BME280;1001;48.87406500;9.59633600;2022-08-21T06:34:16;95286.69;;;18.52;80.58
2000;BME280;1001;48.87406500;9.59633600;2022-08-21T06:36:43;95294.41;;;18.87;78.32
2000;BME280;1001;48.87406500;9.59633600;2022-08-21T06:39:10;95292.31;;;19.18;77.36
2000;BME280;1001;48.87406500;9.59633600;2022-08-21T06:41:38;95301.16;;;19.42;76.74
2000;BME280;1001;48.87406500;9.59633600;2022-08-21T06:44:05;95294.88;;;19.86;75.44
2000;BME280;1001;48.87406500;9.59633600;2022-08-21T06:46:33;95290.19;;;20.06;74.19
2000;BME280;1001;48.87406500;9.59633600;2022-08-21T06:49:00;95293.91;;;20.29;74.22
2000;BME280;1001;48.87406500;9.59633600;2022-08-21T06:51:27;95295.59;;;20.44;72.06
2000;BME280;1001;48.87406500;9.59633600;2022-08-21T06:53:54;95300.63;;;20.64;71.28
2000;BME280;1001;48.87406500;9.59633600;2022-08-21T06:56:21;95304.31;;;20.86;70.27
2000;BME280;1001;48.87406500;9.59633600;2022-08-21T06:58:48;95303.59;;;20.81;69.31
2000;BME280;1001;48.87406500;9.59633600;2022-08-21T07:01:15;95304.03;;;21.07;69.74
2000;BME280;1001;48.87406500;9.59633600;2022-08-21T07:03:43;95304.88;;;21.02;70.02
2000;BME280;1001;48.87406500;9.59633600;2022-08-21T07:06:10;95303.56;;;20.99;69.04
2000;BME280;1001;48.87406500;9.59633600;2022-08-21T07:08:38;95306.13;;;21.10;68.58
2000;BME280;1001;48.87406500;9.59633600;2022-08-21T07:11:09;95294.97;;;21.08;68.77
2000;BME280;1001;48.87406500;9.59633600;2022-08-21T07:13:37;95308.63;;;21.20;69.48
2000;BME280;1001;48.87406500;9.59633600;2022-08-21T07:16:04;95304.72;;;21.31;70.40
2000;BME280;1001;48.87406500;9.59633600;2022-08-21T07:18:31;95305.09;;;21.24;70.47
2000;BME280;1001;48.87406500;9.59633600;2022-08-21T07:21:00;95300.56;;;21.06;70.82
2000;BME280;1001;48.87406500;9.59633600;2022-08-21T07:23:29;95300.75;;;21.28;70.50
2000;BME280;1001;48.87406500;9.59633600;2022-08-21T07:25:57;95301.94;;;21.54;68.48
2000;BME280;1001;48.87406500;9.59633600;2022-08-21T07:28:24;95298.47;;;21.54;69.75
2000;BME280;1001;48.87406500;9.59633600;2022-08-21T07:30:53;95291.03;;;21.69;68.48
2000;BME280;1001;48.87406500;9.59633600;2022-08-21T07:33:21;95301.44;;;21.98;66.72
2000;BME280;1001;48.87406500;9.59633600;2022-08-21T07:35:47;95296.91;;;21.99;65.43
2000;BME280;1001;48.87406500;9.59633600;2022-08-21T07:38:16;95293.03;;;21.91;64.95
2000;BME280;1001;48.87406500;9.59633600;2022-08-21T07:40:43;95288.72;;;21.95;64.34
2000;BME280;1001;48.87406500;9.59633600;2022-08-21T07:43:10;95293.84;;;22.05;63.85
2000;BME280;1001;48.87406500;9.59633600;2022-08-21T07:45:37;95287.44;;;22.06;63.73
2000;BME280;1001;48.87406500;9.59633600;2022-08-21T07:48:04;95295.72;;;22.05;63.15
2000;BME280;1001;48.87406500;9.59633600;2022-08-21T07:50:31;95286.94;;;22.18;61.67
2000;BME280;1001;48.87406500;9.59633600;2022-08-21T07:52:58;95289.13;;;22.16;61.94
2000;BME280;1001;48.87406500;9.59633600;2022-08-21T07:55:26;95287.72;;;22.18;66.25
2000;BME280;1001;48.87406500;9.59633600;2022-08-21T07:57:53;95292.56;;;22.16;66.04
2000;BME280;1001;48.87406500;9.59633600;2022-08-21T08:00:26;95286.72;;;22.42;66.68
2000;BME280;1001;48.87406500;9.59633600;2022-08-21T08:02:54;95295.50;;;22.56;64.46
2000;BME280;1001;48.87406500;9.59633600;2022-08-21T08:05:23;95290.16;;;22.56;63.18
2000;BME280;1001;48.87406500;9.59633600;2022-08-21T08:07:51;95289.09;;;22.57;65.90
2000;BME280;1001;48.87406500;9.59633600;2022-08-21T08:10:18;95286.91;;;22.72;67.50
2000;BME280;1001;48.87406500;9.59633600;2022-08-21T08:12:46;95284.25;;;22.59;64.44
2000;BME280;1001;48.87406500;9.59633600;2022-08-21T08:15:16;95288.78;;;22.72;65.99
2000;BME280;1001;48.87406500;9.59633600;2022-08-21T08:17:43;95280.75;;;22.85;65.34
2000;BME280;1001;48.87406500;9.59633600;2022-08-21T08:20:11;95281.94;;;22.79;66.09
2000;BME280;1001;48.87406500;9.59633600;2022-08-21T08:22:38;95277.25;;;22.63;64.54
2000;BME280;1001;48.87406500;9.59633600;2022-08-21T08:25:07;95278.19;;;22.80;65.99
2000;BME280;1001;48.87406500;9.59633600;2022-08-21T08:27:34;95281.19;;;23.01;66.25
2000;BME280;1001;48.87406500;9.59633600;2022-08-21T08:30:03;95285.19;;;23.12;66.04
2000;BME280;1001;48.87406500;9.59633600;2022-08-21T08:32:30;95279.31;;;23.24;64.33
2000;BME280;1001;48.87406500;9.59633600;2022-08-21T08:34:56;95281.31;;;23.40;63.19
2000;BME280;1001;48.87406500;9.59633600;2022-08-21T08:37:23;95281.09;;;23.50;65.28
2000;BME280;1001;48.87406500;9.59633600;2022-08-21T08:39:50;95273.69;;;23.25;61.22
2000;BME280;1001;48.87406500;9.59633600;2022-08-21T08:42:22;95280.72;;;23.21;63.66
2000;BME280;1001;48.87406500;9.59633600;2022-08-21T08:44:56;95272.97;;;23.11;64.62
2000;BME280;1001;48.87406500;9.59633600;2022-08-21T08:47:25;95270.56;;;23.10;69.44
2000;BME280;1001;48.87406500;9.59633600;2022-08-21T08:49:58;95273.81;;;23.20;64.89
2000;BME280;1001;48.87406500;9.59633600;2022-08-21T08:52:29;95273.16;;;23.37;66.33
2000;BME280;1001;48.87406500;9.59633600;2022-08-21T08:55:01;95268.81;;;23.27;66.58
2000;BME280;1001;48.87406500;9.59633600;2022-08-21T08:57:29;95267.91;;;23.32;66.41
2000;BME280;1001;48.87406500;9.59633600;2022-08-21T08:59:59;95265.81;;;23.42;64.25
2000;BME280;1001;48.87406500;9.59633600;2022-08-21T09:02:28;95271.81;;;23.48;61.86
2000;BME280;1001;48.87406500;9.59633600;2022-08-21T09:04:55;95273.69;;;23.47;61.36
2000;BME280;1001;48.87406500;9.59633600;2022-08-21T09:07:35;95267.00;;;23.58;58.91
2000;BME280;1001;48.87406500;9.59633600;2022-08-21T09:10:19;95267.66;;;23.64;61.96
2000;BME280;1001;48.87406500;9.59633600;2022-08-21T09:12:55;95275.84;;;23.67;60.25
2000;BME280;1001;48.87406500;9.59633600;2022-08-21T09:15:28;95269.41;;;23.68;59.93
2000;BME280;1001;48.87406500;9.59633600;2022-08-21T09:18:09;95263.31;;;23.77;62.42
2000;BME280;1001;48.87406500;9.59633600;2022-08-21T09:20:41;95259.28;;;23.88;59.63
2000;BME280;1001;48.87406500;9.59633600;2022-08-21T09:23:21;95262.72;;;23.80;58.17
2000;BME280;1001;48.87406500;9.59633600;2022-08-21T09:25:59;95260.50;;;23.73;58.11
2000;BME280;1001;48.87406500;9.59633600;2022-08-21T09:28:31;95254.84;;;23.83;58.73
2000;BME280;1001;48.87406500;9.59633600;2022-08-21T09:30:59;95252.47;;;23.42;58.10
2000;BME280;1001;48.87406500;9.59633600;2022-08-21T09:33:28;95258.25;;;23.66;58.40
2000;BME280;1001;48.87406500;9.59633600;2022-08-21T09:35:56;95248.56;;;23.79;55.19
2000;BME280;1001;48.87406500;9.59633600;2022-08-21T09:38:28;95252.38;;;23.56;55.50
2000;BME280;1001;48.87406500;9.59633600;2022-08-21T09:41:00;95251.81;;;23.67;49.96
2000;BME280;1001;48.87406500;9.59633600;2022-08-21T09:43:29;95253.13;;;23.79;50.78
2000;BME280;1001;48.87406500;9.59633600;2022-08-21T09:46:08;95254.91;;;23.92;55.10
2000;BME280;1001;48.87406500;9.59633600;2022-08-21T09:48:41;95251.78;;;23.90;52.61
2000;BME280;1001;48.87406500;9.59633600;2022-08-21T09:51:10;95248.03;;;23.99;51.83
2000;BME280;1001;48.87406500;9.59633600;2022-08-21T09:53:41;95251.56;;;24.17;51.61
2000;BME280;1001;48.87406500;9.59633600;2022-08-21T09:56:19;95250.94;;;24.20;52.02
2000;BME280;1001;48.87406500;9.59633600;2022-08-21T09:59:14;95253.16;;;23.87;52.47
2000;BME280;1001;48.87406500;9.59633600;2022-08-21T10:01:44;95253.06;;;24.01;50.67
2000;BME280;1001;48.87406500;9.59633600;2022-08-21T10:04:11;95256.78;;;24.30;52.33
2000;BME280;1001;48.87406500;9.59633600;2022-08-21T10:06:38;95246.13;;;24.56;49.50
2000;BME280;1001;48.87406500;9.59633600;2022-08-21T10:09:06;95251.09;;;24.15;47.41
2000;BME280;1001;48.87406500;9.59633600;2022-08-21T10:11:35;95243.59;;;23.95;47.09
2000;BME280;1001;48.87406500;9.59633600;2022-08-21T10:14:08;95241.16;;;24.07;47.83
2000;BME280;1001;48.87406500;9.59633600;2022-08-21T10:16:47;95244.91;;;24.54;48.28
2000;BME280;1001;48.87406500;9.59633600;2022-08-21T10:19:25;95231.03;;;23.95;48.39
2000;BME280;1001;48.87406500;9.59633600;2022-08-21T10:22:00;95238.50;;;23.45;47.83
2000;BME280;1001;48.87406500;9.59633600;2022-08-21T10:24:31;95238.91;;;23.17;49.80
2000;BME280;1001;48.87406500;9.59633600;2022-08-21T10:27:10;95226.31;;;23.61;49.50
2000;BME280;1001;48.87406500;9.59633600;2022-08-21T10:29:46;95229.53;;;23.72;49.62
2000;BME280;1001;48.87406500;9.59633600;2022-08-21T10:32:24;95228.41;;;23.64;49.96
2000;BME280;1001;48.87406500;9.59633600;2022-08-21T10:35:00;95235.31;;;24.05;51.47
2000;BME280;1001;48.87406500;9.59633600;2022-08-21T10:37:40;95238.25;;;24.34;48.28
2000;BME280;1001;48.87406500;9.59633600;2022-08-21T10:40:15;95237.31;;;23.60;46.10
2000;BME280;1001;48.87406500;9.59633600;2022-08-21T10:42:59;95228.28;;;22.94;47.36
2000;BME280;1001;48.87406500;9.59633600;2022-08-21T10:45:38;95226.69;;;23.16;49.22
2000;BME280;1001;48.87406500;9.59633600;2022-08-21T10:48:16;95220.00;;;23.49;48.21
2000;BME280;1001;48.87406500;9.59633600;2022-08-21T10:50:50;95229.28;;;23.51;47.71
2000;BME280;1001;48.87406500;9.59633600;2022-08-21T10:56:18;95222.75;;;24.05;46.42
2000;BME280;1001;48.87406500;9.59633600;2022-08-21T10:58:56;95228.97;;;24.40;50.20
2000;BME280;1001;48.87406500;9.59633600;2022-08-21T11:01:29;95217.50;;;24.48;49.68
2000;BME280;1001;48.87406500;9.59633600;2022-08-21T11:04:09;95220.06;;;24.87;49.20
2000;BME280;1001;48.87406500;9.59633600;2022-08-21T11:06:39;95228.09;;;25.05;47.35
2000;BME280;1001;48.87406500;9.59633600;2022-08-21T11:09:12;95220.16;;;25.42;46.57
2000;BME280;1001;48.87406500;9.59633600;2022-08-21T11:11:44;95224.31;;;25.78;46.55
2000;BME280;1001;48.87406500;9.59633600;2022-08-21T11:14:21;95213.44;;;25.83;47.79
2000;BME280;1001;48.87406500;9.59633600;2022-08-21T11:16:53;95218.34;;;25.72;43.84
2000;BME280;1001;48.87406500;9.59633600;2022-08-21T11:19:28;95205.84;;;25.30;44.35
2000;BME280;1001;48.87406500;9.59633600;2022-08-21T11:22:00;95210.47;;;25.12;44.10
2000;BME280;1001;48.87406500;9.59633600;2022-08-21T11:24:33;95204.31;;;25.12;43.04
2000;BME280;1001;48.87406500;9.59633600;2022-08-21T11:27:09;95202.59;;;25.07;42.66
2000;BME280;1001;48.87406500;9.59633600;2022-08-21T11:29:44;95208.88;;;25.20;42.75
2000;BME280;1001;48.87406500;9.59633600;2022-08-21T11:32:50;95200.19;;;25.23;42.37
2000;BME280;1001;48.87406500;9.59633600;2022-08-21T11:35:30;95191.41;;;24.71;44.48
2000;BME280;1001;48.87406500;9.59633600;2022-08-21T11:38:06;95193.13;;;24.50;44.98
2000;BME280;1001;48.87406500;9.59633600;2022-08-21T11:40:45;95195.81;;;25.01;44.91
2000;BME280;1001;48.87406500;9.59633600;2022-08-21T11:43:21;95197.03;;;25.29;42.65
2000;BME280;1001;48.87406500;9.59633600;2022-08-21T11:45:54;95190.22;;;25.49;42.24
2000;BME280;1001;48.87406500;9.59633600;2022-08-21T11:48:33;95194.97;;;25.90;42.92
2000;BME280;1001;48.87406500;9.59633600;2022-08-21T11:51:07;95192.03;;;26.12;43.21
2000;BME280;1001;48.87406500;9.59633600;2022-08-21T11:53:40;95189.72;;;25.64;42.73
2000;BME280;1001;48.87406500;9.59633600;2022-08-21T11:56:18;95190.06;;;25.92;42.79
2000;BME280;1001;48.87406500;9.59633600;2022-08-21T11:58:49;95178.38;;;25.96;42.64